createdAt,value
2018-09-05T04:00:40.633Z,983.07
2018-09-05T04:01:40.601Z,983.05
2018-09-05T04:02:40.581Z,983.11
2018-09-05T04:03:40.557Z,983.07
2018-09-05T04:04:40.554Z,983.09
2018-09-05T04:05:40.558Z,983.11
2018-09-05T04:06:40.534Z,983.10
2018-09-05T04:07:40.523Z,983.05
2018-09-05T04:08:40.501Z,983.04
2018-09-05T04:09:40.496Z,983.02
2018-09-05T04:10:40.545Z,983.02
2018-09-05T04:11:40.474Z,983.02
2018-09-05T04:12:40.463Z,983.01
2018-09-05T04:13:40.445Z,983.00
2018-09-05T04:14:40.432Z,982.96
2018-09-05T04:15:40.433Z,983.02
2018-09-05T04:16:40.408Z,983.03
2018-09-05T04:17:40.396Z,982.99
2018-09-05T04:18:40.388Z,983.00
2018-09-05T04:19:40.380Z,983.00
2018-09-05T04:20:40.376Z,983.03
2018-09-05T04:21:40.361Z,983.04
2018-09-05T04:22:40.343Z,983.04
2018-09-05T04:23:40.332Z,983.01
2018-09-05T04:24:40.318Z,983.09
2018-09-05T04:25:40.323Z,983.04
2018-09-05T04:26:40.299Z,983.08
2018-09-05T04:27:40.285Z,983.07
2018-09-05T04:28:40.276Z,983.08
2018-09-05T04:29:40.264Z,983.03
2018-09-05T04:30:40.267Z,983.06
2018-09-05T04:31:40.243Z,983.08
2018-09-05T04:32:40.228Z,983.06
2018-09-05T04:33:40.217Z,983.03
2018-09-05T04:34:40.236Z,983.12
2018-09-05T04:35:40.217Z,983.10
2018-09-05T04:36:40.181Z,983.08
2018-09-05T04:37:40.171Z,983.15
2018-09-05T04:38:40.161Z,983.12
2018-09-05T04:39:40.150Z,983.14
2018-09-05T04:40:40.148Z,983.18
2018-09-05T04:41:40.154Z,983.18
2018-09-05T04:42:40.114Z,983.20
2018-09-05T04:43:40.109Z,983.24
2018-09-05T04:44:40.101Z,983.20
2018-09-05T04:45:40.095Z,983.23
2018-09-05T04:46:40.072Z,983.25
2018-09-05T04:47:40.082Z,983.24
2018-09-05T04:48:40.049Z,983.22
2018-09-05T04:49:40.035Z,983.21
2018-09-05T04:50:40.041Z,983.21
2018-09-05T04:51:40.016Z,983.27
2018-09-05T04:52:40.047Z,983.27
2018-09-05T04:53:39.994Z,983.22
2018-09-05T04:54:39.987Z,983.25
2018-09-05T04:55:39.982Z,983.26
2018-09-05T04:56:39.956Z,983.29
2018-09-05T04:57:39.945Z,983.29
2018-09-05T04:58:39.937Z,983.31
2018-09-05T04:59:39.924Z,983.29
2018-09-05T05:00:39.926Z,983.29
2018-09-05T05:01:39.899Z,983.30
2018-09-05T05:02:39.889Z,983.28
2018-09-05T05:03:39.885Z,983.34
2018-09-05T05:04:39.869Z,983.32
2018-09-05T05:05:39.879Z,983.35
2018-09-05T05:06:39.848Z,983.37
2018-09-05T05:07:39.833Z,983.34
2018-09-05T05:08:39.823Z,983.32
2018-09-05T05:09:39.824Z,983.33
2018-09-05T05:10:39.811Z,983.35
2018-09-05T05:11:39.788Z,983.35
2018-09-05T05:12:39.898Z,983.38
2018-09-05T05:13:39.768Z,983.34
2018-09-05T05:14:39.755Z,983.32
2018-09-05T05:15:39.755Z,983.32
2018-09-05T05:16:39.729Z,983.32
2018-09-05T05:17:39.722Z,983.35
2018-09-05T05:18:39.712Z,983.35
2018-09-05T05:19:39.696Z,983.42
2018-09-05T05:20:39.700Z,983.39
2018-09-05T05:21:39.692Z,983.39
2018-09-05T05:22:39.662Z,983.42
2018-09-05T05:23:39.730Z,983.44
2018-09-05T05:24:39.639Z,983.45
2018-09-05T05:25:39.629Z,983.46
2018-09-05T05:26:39.633Z,983.44
2018-09-05T05:27:39.608Z,983.47
2018-09-05T05:28:39.597Z,983.44
2018-09-05T05:29:39.585Z,983.44
2018-09-05T05:30:39.573Z,983.46
2018-09-05T05:31:39.576Z,983.44
2018-09-05T05:32:39.623Z,983.43
2018-09-05T05:33:39.542Z,983.42
2018-09-05T05:34:39.529Z,983.40
2018-09-05T05:35:39.516Z,983.43
2018-09-05T05:36:39.521Z,983.44
2018-09-05T05:37:39.494Z,983.43
2018-09-05T05:38:39.488Z,983.39
2018-09-05T05:39:39.470Z,983.42
2018-09-05T05:40:39.459Z,983.42
2018-09-05T05:41:39.462Z,983.40
2018-09-05T05:42:39.435Z,983.40
2018-09-05T05:43:39.424Z,983.39
2018-09-05T05:44:39.418Z,983.41
2018-09-05T05:45:39.402Z,983.44
2018-09-05T05:46:39.451Z,983.41
2018-09-05T05:47:39.381Z,983.40
2018-09-05T05:48:39.369Z,983.39
2018-09-05T05:49:39.360Z,983.43
2018-09-05T05:50:39.354Z,983.45
2018-09-05T05:51:39.350Z,983.41
2018-09-05T05:52:39.324Z,983.38
2018-09-05T05:53:39.313Z,983.42
2018-09-05T05:54:39.306Z,983.35
2018-09-05T05:55:39.288Z,983.40
2018-09-05T05:56:39.290Z,983.41
2018-09-05T05:57:39.268Z,983.41
2018-09-05T05:58:39.255Z,983.46
2018-09-05T05:59:39.248Z,983.47
2018-09-05T06:00:39.237Z,983.47
2018-09-05T06:01:39.235Z,983.46
2018-09-05T06:02:39.211Z,983.43
2018-09-05T06:03:39.205Z,983.44
2018-09-05T06:04:39.187Z,983.45
2018-09-05T06:05:39.179Z,983.43
2018-09-05T06:06:39.179Z,983.47
2018-09-05T06:07:39.167Z,983.46
2018-09-05T06:08:39.146Z,983.48
2018-09-05T06:09:39.135Z,983.46
2018-09-05T06:10:39.118Z,983.47
2018-09-05T06:11:39.120Z,983.50
2018-09-05T06:12:39.101Z,983.45
2018-09-05T06:13:39.090Z,983.49
2018-09-05T06:14:39.075Z,983.46
2018-09-05T06:15:39.158Z,983.47
2018-09-05T06:16:39.066Z,983.46
2018-09-05T06:17:39.062Z,983.49
2018-09-05T06:18:39.028Z,983.49
2018-09-05T06:19:39.017Z,983.47
2018-09-05T06:20:39.006Z,983.47
2018-09-05T06:21:39.007Z,983.51
2018-09-05T06:22:38.983Z,983.45
2018-09-05T06:23:38.977Z,983.47
2018-09-05T06:24:38.964Z,983.42
2018-09-05T06:25:38.950Z,983.47
2018-09-05T06:26:38.955Z,983.47
2018-09-05T06:27:38.950Z,983.47
2018-09-05T06:28:38.922Z,983.48
2018-09-05T06:29:38.907Z,983.47
2018-09-05T06:30:38.967Z,983.47
2018-09-05T06:31:38.896Z,983.50
2018-09-05T06:32:38.916Z,983.46
2018-09-05T06:33:38.859Z,983.48
2018-09-05T06:34:38.850Z,983.47
2018-09-05T06:35:38.902Z,983.45
2018-09-05T06:36:38.841Z,983.45
2018-09-05T06:37:38.819Z,983.45
2018-09-05T06:38:38.822Z,983.51
2018-09-05T06:39:38.796Z,983.49
2018-09-05T06:40:38.781Z,983.51
2018-09-05T06:41:38.779Z,983.52
2018-09-05T06:42:38.760Z,983.51
2018-09-05T06:43:38.760Z,983.55
2018-09-05T06:44:38.738Z,983.48
2018-09-05T06:45:38.724Z,983.54
2018-09-05T06:46:38.724Z,983.49
2018-09-05T06:47:38.711Z,983.50
2018-09-05T06:48:38.692Z,983.51
2018-09-05T06:49:38.682Z,983.50
2018-09-05T06:50:38.675Z,983.49
2018-09-05T06:51:38.668Z,983.52
2018-09-05T06:52:38.645Z,983.51
2018-09-05T06:53:38.634Z,983.46
2018-09-05T06:54:38.623Z,983.47
2018-09-05T06:55:38.613Z,983.48
2018-09-05T06:56:38.613Z,983.50
2018-09-05T06:57:38.593Z,983.51
2018-09-05T06:58:38.578Z,983.44
2018-09-05T06:59:38.566Z,983.45
2018-09-05T07:00:38.556Z,983.42
2018-09-05T07:01:38.555Z,983.44
2018-09-05T07:02:38.532Z,983.48
2018-09-05T07:03:38.547Z,983.46
2018-09-05T07:04:38.513Z,983.48
2018-09-05T07:05:38.498Z,983.47
2018-09-05T07:06:38.556Z,983.43
2018-09-05T07:07:38.476Z,983.39
2018-09-05T07:08:38.465Z,983.39
2018-09-05T07:09:38.454Z,983.44
2018-09-05T07:10:38.442Z,983.45
2018-09-05T07:11:38.446Z,983.52
2018-09-05T07:12:38.422Z,983.48
2018-09-05T07:13:38.409Z,983.50
2018-09-05T07:14:38.468Z,983.47
2018-09-05T07:15:38.384Z,983.48
2018-09-05T07:16:38.386Z,983.46
2018-09-05T07:17:38.397Z,983.47
2018-09-05T07:18:38.352Z,983.46
2018-09-05T07:19:38.340Z,983.46
2018-09-05T07:20:38.334Z,983.49
2018-09-05T07:21:38.341Z,983.50
2018-09-05T07:22:38.307Z,983.50
2018-09-05T07:23:38.303Z,983.50
2018-09-05T07:24:38.285Z,983.51
2018-09-05T07:25:38.286Z,983.49
2018-09-05T07:26:38.298Z,983.54
2018-09-05T07:27:38.359Z,983.51
2018-09-05T07:28:38.241Z,983.49
2018-09-05T07:29:38.228Z,983.52
2018-09-05T07:30:38.472Z,983.51
2018-09-05T07:31:38.206Z,983.42
2018-09-05T07:32:38.213Z,983.45
2018-09-05T07:33:38.183Z,983.51
2018-09-05T07:34:38.173Z,983.46
2018-09-05T07:35:38.221Z,983.46
2018-09-05T07:36:38.150Z,983.47
2018-09-05T07:37:38.151Z,983.51
2018-09-05T07:38:38.131Z,983.49
2018-09-05T07:39:38.204Z,983.48
2018-09-05T07:40:38.385Z,983.49
2018-09-05T07:41:38.159Z,983.49
2018-09-05T07:42:38.093Z,983.49
2018-09-05T07:43:38.126Z,983.49
2018-09-05T07:44:38.062Z,983.46
2018-09-05T07:45:38.052Z,983.49
2018-09-05T07:46:38.039Z,983.49
2018-09-05T07:47:38.038Z,983.53
2018-09-05T07:48:38.020Z,983.48
2018-09-05T07:49:38.004Z,983.48
2018-09-05T07:50:38.102Z,983.51
2018-09-05T07:51:37.984Z,983.51
2018-09-05T07:52:37.982Z,983.53
2018-09-05T07:53:37.962Z,983.57
2018-09-05T07:54:37.950Z,983.54
2018-09-05T07:55:38.022Z,983.57
2018-09-05T07:56:37.993Z,983.54
2018-09-05T07:57:37.948Z,983.58
2018-09-05T07:58:37.902Z,983.58
2018-09-05T07:59:37.891Z,983.55
2018-09-05T08:00:37.886Z,983.54
2018-09-05T08:01:37.869Z,983.54
2018-09-05T08:02:37.872Z,983.56
2018-09-05T08:03:37.850Z,983.58
2018-09-05T08:04:37.838Z,983.59
2018-09-05T08:05:37.828Z,983.61
2018-09-05T08:06:37.884Z,983.56
2018-09-05T08:07:37.812Z,983.59
2018-09-05T08:08:37.792Z,983.57
2018-09-05T08:09:37.793Z,983.59
2018-09-05T08:10:37.769Z,983.59
2018-09-05T08:11:37.776Z,983.54
2018-09-05T08:12:37.759Z,983.54
2018-09-05T08:13:37.739Z,983.55
2018-09-05T08:14:37.724Z,983.51
2018-09-05T08:15:37.714Z,983.46
2018-09-05T08:16:37.702Z,983.46
2018-09-05T08:17:37.704Z,983.48
2018-09-05T08:18:37.678Z,983.47
2018-09-05T08:19:37.671Z,983.48
2018-09-05T08:20:37.655Z,983.48
2018-09-05T08:21:37.646Z,983.46
2018-09-05T08:22:37.654Z,983.49
2018-09-05T08:23:37.623Z,983.49
2018-09-05T08:24:37.664Z,983.48
2018-09-05T08:25:37.600Z,983.53
2018-09-05T08:26:37.593Z,983.49
2018-09-05T08:27:37.589Z,983.47
2018-09-05T08:28:37.569Z,983.51
2018-09-05T08:29:37.632Z,983.50
2018-09-05T08:30:37.546Z,983.46
2018-09-05T08:31:37.532Z,983.47
2018-09-05T08:32:37.533Z,983.44
2018-09-05T08:33:37.511Z,983.48
2018-09-05T08:34:37.527Z,983.44
2018-09-05T08:35:37.556Z,983.44
2018-09-05T08:36:37.666Z,983.45
2018-09-05T08:37:37.858Z,983.46
2018-09-05T08:38:37.502Z,983.44
2018-09-05T08:39:37.464Z,983.47
2018-09-05T08:40:37.433Z,983.41
2018-09-05T08:41:37.429Z,983.43
2018-09-05T08:42:37.469Z,983.40
2018-09-05T08:43:37.404Z,983.41
2018-09-05T08:44:37.527Z,983.44
2018-09-05T08:45:37.556Z,983.43
2018-09-05T08:46:37.365Z,983.38
2018-09-05T08:47:37.368Z,983.38
2018-09-05T08:48:37.432Z,983.42
2018-09-05T08:49:37.363Z,983.38
2018-09-05T08:50:37.319Z,983.37
2018-09-05T08:51:37.325Z,983.40
2018-09-05T08:52:37.344Z,983.36
2018-09-05T08:53:37.287Z,983.37
2018-09-05T08:54:37.285Z,983.36
2018-09-05T08:55:37.265Z,983.34
2018-09-05T08:56:37.259Z,983.37
2018-09-05T08:57:37.265Z,983.35
2018-09-05T08:58:37.261Z,983.35
2018-09-05T08:59:37.222Z,983.32
2018-09-05T09:00:37.239Z,983.30
2018-09-05T09:01:37.200Z,983.34
2018-09-05T09:02:37.212Z,983.35
2018-09-05T09:03:37.175Z,983.34
2018-09-05T09:04:37.229Z,983.36
2018-09-05T09:05:37.159Z,983.33
2018-09-05T09:06:37.140Z,983.33
2018-09-05T09:07:37.129Z,983.36
2018-09-05T09:08:37.128Z,983.34
2018-09-05T09:09:37.112Z,983.32
2018-09-05T09:10:37.097Z,983.33
2018-09-05T09:11:37.115Z,983.32
2018-09-05T09:12:37.079Z,983.38
2018-09-05T09:13:37.074Z,983.28
2018-09-05T09:14:37.077Z,983.28
2018-09-05T09:15:37.045Z,983.28
2018-09-05T09:16:37.029Z,983.26
2018-09-05T09:17:37.017Z,983.26
2018-09-05T09:18:37.020Z,983.25
2018-09-05T09:19:36.998Z,983.24
2018-09-05T09:20:36.996Z,983.25
2018-09-05T09:21:36.973Z,983.23
2018-09-05T09:22:36.963Z,983.26
2018-09-05T09:23:36.961Z,983.26
2018-09-05T09:24:36.938Z,983.25
2018-09-05T09:25:36.929Z,983.22
2018-09-05T09:26:36.920Z,983.24
2018-09-05T09:27:36.936Z,983.26
2018-09-05T09:28:36.905Z,983.21
2018-09-05T09:29:36.887Z,983.23
2018-09-05T09:30:36.873Z,983.20
2018-09-05T09:31:36.862Z,983.22
2018-09-05T09:32:36.852Z,983.18
2018-09-05T09:33:36.852Z,983.21
2018-09-05T09:34:36.827Z,983.18
2018-09-05T09:35:36.817Z,983.12
2018-09-05T09:36:36.810Z,983.16
2018-09-05T09:37:36.800Z,983.14
2018-09-05T09:38:36.796Z,983.13
2018-09-05T09:39:36.784Z,983.10
2018-09-05T09:40:36.761Z,983.13
2018-09-05T09:41:36.750Z,983.15
2018-09-05T09:42:36.738Z,983.11
2018-09-05T09:43:36.739Z,983.13
2018-09-05T09:44:36.716Z,983.10
2018-09-05T09:45:36.706Z,983.09
2018-09-05T09:46:36.713Z,983.06
2018-09-05T09:47:36.681Z,983.05
2018-09-05T09:48:36.682Z,983.03
2018-09-05T09:49:36.662Z,983.08
2018-09-05T09:50:36.648Z,983.11
2018-09-05T09:51:36.638Z,983.04
2018-09-05T09:52:36.629Z,983.01
2018-09-05T09:53:36.627Z,983.03
2018-09-05T09:54:36.608Z,983.02
2018-09-05T09:55:36.599Z,983.03
2018-09-05T09:56:36.666Z,983.00
2018-09-05T09:57:36.576Z,983.00
2018-09-05T09:58:36.570Z,982.97
2018-09-05T09:59:36.548Z,983.00
2018-09-05T10:00:36.538Z,982.97
2018-09-05T10:01:36.527Z,982.96
2018-09-05T10:02:36.517Z,982.96
2018-09-05T10:03:36.729Z,982.91
2018-09-05T10:04:36.508Z,982.97
2018-09-05T10:05:36.484Z,982.93
2018-09-05T10:06:36.475Z,982.91
2018-09-05T10:07:36.457Z,982.90
2018-09-05T10:08:36.462Z,982.91
2018-09-05T10:09:36.507Z,982.82
2018-09-05T10:10:36.494Z,982.81
2018-09-05T10:11:36.416Z,982.79
2018-09-05T10:12:36.407Z,982.80
2018-09-05T10:13:36.416Z,982.82
2018-09-05T10:14:36.382Z,982.80
2018-09-05T10:15:36.370Z,982.83
2018-09-05T10:16:36.359Z,982.71
2018-09-05T10:17:36.349Z,982.79
2018-09-05T10:18:36.346Z,982.77
2018-09-05T10:19:36.329Z,982.77
2018-09-05T10:20:36.313Z,982.73
2018-09-05T10:21:36.306Z,982.72
2018-09-05T10:22:36.363Z,982.73
2018-09-05T10:23:36.289Z,982.70
2018-09-05T10:24:36.269Z,982.68
2018-09-05T10:25:36.273Z,982.69
2018-09-05T10:26:36.247Z,982.66
2018-09-05T10:27:36.240Z,982.64
2018-09-05T10:28:36.233Z,982.65
2018-09-05T10:29:36.214Z,982.68
2018-09-05T10:30:36.200Z,982.70
2018-09-05T10:31:36.195Z,982.65
2018-09-05T10:32:36.178Z,982.68
2018-09-05T10:33:36.178Z,982.64
2018-09-05T10:34:36.156Z,982.61
2018-09-05T10:35:36.145Z,982.61
2018-09-05T10:36:36.133Z,982.58
2018-09-05T10:37:36.122Z,982.60
2018-09-05T10:38:36.125Z,982.57
2018-09-05T10:39:36.101Z,982.58
2018-09-05T10:40:36.093Z,982.50
2018-09-05T10:41:36.316Z,982.50
2018-09-05T10:42:36.074Z,982.45
2018-09-05T10:43:36.081Z,982.46
2018-09-05T10:44:36.052Z,982.45
2018-09-05T10:45:36.036Z,982.46
2018-09-05T10:46:36.225Z,982.44
2018-09-05T10:47:36.015Z,982.45
2018-09-05T10:48:36.570Z,982.41
2018-09-05T10:49:36.243Z,982.45
2018-09-05T10:50:35.977Z,982.43
2018-09-05T10:51:35.998Z,982.41
2018-09-05T10:52:36.178Z,982.39
2018-09-05T10:53:35.966Z,982.43
2018-09-05T10:54:35.938Z,982.44
2018-09-05T10:55:35.928Z,982.43
2018-09-05T10:56:35.920Z,982.39
2018-09-05T10:57:35.924Z,982.43
2018-09-05T10:58:35.917Z,982.41
2018-09-05T10:59:35.886Z,982.43
2018-09-05T11:00:35.872Z,982.42
2018-09-05T11:01:35.861Z,982.41
2018-09-05T11:02:35.849Z,982.39
2018-09-05T11:03:35.851Z,982.35
2018-09-05T11:04:35.826Z,982.34
2018-09-05T11:05:35.954Z,982.34
2018-09-05T11:06:35.803Z,982.39
2018-09-05T11:07:35.796Z,982.36
2018-09-05T11:08:35.862Z,982.32
2018-09-05T11:09:35.771Z,982.35
2018-09-05T11:10:35.843Z,982.32
2018-09-05T11:11:35.743Z,982.32
2018-09-05T11:12:35.762Z,982.30
2018-09-05T11:13:35.734Z,982.30
2018-09-05T11:14:35.730Z,982.33
2018-09-05T11:15:35.697Z,982.31
2018-09-05T11:16:35.697Z,982.29
2018-09-05T11:17:35.682Z,982.30
2018-09-05T11:18:35.680Z,982.30
2018-09-05T11:19:35.672Z,982.33
2018-09-05T11:20:35.650Z,982.30
2018-09-05T11:21:35.745Z,982.26
2018-09-05T11:22:35.624Z,982.26
2018-09-05T11:23:35.612Z,982.27
2018-09-05T11:24:35.622Z,982.19
2018-09-05T11:25:35.588Z,982.26
2018-09-05T11:26:35.581Z,982.23
2018-09-05T11:27:35.596Z,982.25
2018-09-05T11:28:35.559Z,982.24
2018-09-05T11:29:35.559Z,982.20
2018-09-05T11:30:35.535Z,982.23
2018-09-05T11:31:35.520Z,982.22
2018-09-05T11:32:35.514Z,982.23
2018-09-05T11:33:35.503Z,982.25
2018-09-05T11:34:35.508Z,982.21
2018-09-05T11:35:35.476Z,982.21
2018-09-05T11:36:35.465Z,982.18
2018-09-05T11:37:35.457Z,982.16
2018-09-05T11:38:35.453Z,982.22
2018-09-05T11:39:35.472Z,982.19
2018-09-05T11:40:35.422Z,982.12
2018-09-05T11:41:35.417Z,982.13
2018-09-05T11:42:35.429Z,982.12
2018-09-05T11:43:35.392Z,982.12
2018-09-05T11:44:35.397Z,982.09
2018-09-05T11:45:35.400Z,982.06
2018-09-05T11:46:35.358Z,982.07
2018-09-05T11:47:35.347Z,982.07
2018-09-05T11:48:35.334Z,982.05
2018-09-05T11:49:35.340Z,982.05
2018-09-05T11:50:35.320Z,982.07
2018-09-05T11:51:35.307Z,982.06
2018-09-05T11:52:35.291Z,982.05
2018-09-05T11:53:35.283Z,982.04
2018-09-05T11:54:35.282Z,982.00
2018-09-05T11:55:35.258Z,982.01
2018-09-05T11:56:35.248Z,982.02
2018-09-05T11:57:35.236Z,982.02
2018-09-05T11:58:35.236Z,982.05
2018-09-05T11:59:35.260Z,982.06
2018-09-05T12:00:35.207Z,982.00
2018-09-05T12:01:35.202Z,982.02
2018-09-05T12:02:35.187Z,982.03
2018-09-05T12:03:35.168Z,982.02
2018-09-05T12:04:35.176Z,982.05
2018-09-05T12:05:35.158Z,982.04
2018-09-05T12:06:35.134Z,981.99
2018-09-05T12:07:35.128Z,981.98
2018-09-05T12:08:35.115Z,981.99
2018-09-05T12:09:35.119Z,981.99
2018-09-05T12:10:35.092Z,981.98
2018-09-05T12:11:35.106Z,982.03
2018-09-05T12:12:35.069Z,982.04
2018-09-05T12:13:35.072Z,982.04
2018-09-05T12:14:35.066Z,982.00
2018-09-05T12:15:35.034Z,982.06
2018-09-05T12:16:35.022Z,982.02
2018-09-05T12:17:35.023Z,982.05
2018-09-05T12:18:35.016Z,981.99
2018-09-05T12:19:35.004Z,981.93
2018-09-05T12:20:34.989Z,981.98
2018-09-05T12:21:34.965Z,981.97
2018-09-05T12:22:34.966Z,981.97
2018-09-05T12:23:34.947Z,981.99
2018-09-05T12:24:34.950Z,981.93
2018-09-05T12:25:34.927Z,981.96
2018-09-05T12:26:34.911Z,981.91
2018-09-05T12:27:34.902Z,981.89
2018-09-05T12:28:34.891Z,981.88
2018-09-05T12:29:34.898Z,981.88
2018-09-05T12:30:34.873Z,981.88
2018-09-05T12:31:34.855Z,981.89
2018-09-05T12:32:34.847Z,981.90
2018-09-05T12:33:34.837Z,981.91
2018-09-05T12:34:34.833Z,981.90
2018-09-05T12:35:34.812Z,981.89
2018-09-05T12:36:34.826Z,981.90
2018-09-05T12:37:34.793Z,981.90
2018-09-05T12:38:34.779Z,981.85
2018-09-05T12:39:34.822Z,981.89
2018-09-05T12:40:34.754Z,981.81
2018-09-05T12:41:34.755Z,981.83
2018-09-05T12:42:34.747Z,981.85
2018-09-05T12:43:34.726Z,981.83
2018-09-05T12:44:34.772Z,981.83
2018-09-05T12:45:34.708Z,981.81
2018-09-05T12:46:34.694Z,981.79
2018-09-05T12:47:34.687Z,981.76
2018-09-05T12:48:34.672Z,981.72
2018-09-05T12:49:34.680Z,981.72
2018-09-05T12:50:34.645Z,981.76
2018-09-05T12:51:34.630Z,981.75
2018-09-05T12:52:34.624Z,981.76
2018-09-05T12:53:34.611Z,981.78
2018-09-05T12:54:34.616Z,981.76
2018-09-05T12:55:34.593Z,981.74
2018-09-05T12:56:34.578Z,981.72
2018-09-05T12:57:34.568Z,981.76
2018-09-05T12:58:34.567Z,981.72
2018-09-05T12:59:34.564Z,981.78
2018-09-05T13:00:34.532Z,981.75
2018-09-05T13:01:34.519Z,981.73
2018-09-05T13:02:34.510Z,981.74
2018-09-05T13:03:34.506Z,981.72
2018-09-05T13:04:34.498Z,981.73
2018-09-05T13:05:34.542Z,981.72
2018-09-05T13:06:34.468Z,981.78
2018-09-05T13:07:34.453Z,981.77
2018-09-05T13:08:34.442Z,981.79
2018-09-05T13:09:34.441Z,981.72
2018-09-05T13:10:34.418Z,981.72
2018-09-05T13:11:34.411Z,981.72
2018-09-05T13:12:34.398Z,981.66
2018-09-05T13:13:34.394Z,981.71
2018-09-05T13:14:34.378Z,981.71
2018-09-05T13:15:34.372Z,981.77
2018-09-05T13:16:34.353Z,981.73
2018-09-05T13:17:34.340Z,981.74
2018-09-05T13:18:34.330Z,981.69
2018-09-05T13:19:34.321Z,981.72
2018-09-05T13:20:34.322Z,981.68
2018-09-05T13:21:34.358Z,981.68
2018-09-05T13:22:34.287Z,981.68
2018-09-05T13:23:34.274Z,981.67
2018-09-05T13:24:34.265Z,981.69
2018-09-05T13:25:34.262Z,981.66
2018-09-05T13:26:34.261Z,981.66
2018-09-05T13:27:34.230Z,981.65
2018-09-05T13:28:34.218Z,981.68
2018-09-05T13:29:34.210Z,981.67
2018-09-05T13:30:34.210Z,981.65
2018-09-05T13:31:34.385Z,981.62
2018-09-05T13:32:34.178Z,981.65
2018-09-05T13:33:34.166Z,981.59
2018-09-05T13:34:34.153Z,981.54
2018-09-05T13:35:34.153Z,981.59
2018-09-05T13:36:34.140Z,981.58
2018-09-05T13:37:34.120Z,981.59
2018-09-05T13:38:34.110Z,981.53
2018-09-05T13:39:34.101Z,981.56
2018-09-05T13:40:34.101Z,981.54
2018-09-05T13:41:34.076Z,981.54
2018-09-05T13:42:34.079Z,981.52
2018-09-05T13:43:34.053Z,981.52
2018-09-05T13:44:34.040Z,981.49
2018-09-05T13:45:34.045Z,981.49
2018-09-05T13:46:34.021Z,981.47
2018-09-05T13:47:34.021Z,981.50
2018-09-05T13:48:33.998Z,981.50
2018-09-05T13:49:33.985Z,981.41
2018-09-05T13:50:33.985Z,981.47
2018-09-05T13:51:33.963Z,981.49
2018-09-05T13:52:33.953Z,981.45
2018-09-05T13:53:33.941Z,981.46
2018-09-05T13:54:33.931Z,981.42
2018-09-05T13:55:33.931Z,981.43
2018-09-05T13:56:33.908Z,981.45
2018-09-05T13:57:33.898Z,981.44
2018-09-05T13:58:33.888Z,981.47
2018-09-05T13:59:33.875Z,981.42
2018-09-05T14:00:33.875Z,981.42
2018-09-05T14:01:33.853Z,981.45
2018-09-05T14:02:33.843Z,981.42
2018-09-05T14:03:33.832Z,981.42
2018-09-05T14:04:33.841Z,981.45
2018-09-05T14:05:33.817Z,981.41
2018-09-05T14:06:33.806Z,981.44
2018-09-05T14:07:33.786Z,981.42
2018-09-05T14:08:33.776Z,981.43
2018-09-05T14:09:33.765Z,981.36
2018-09-05T14:10:33.764Z,981.37
2018-09-05T14:11:33.743Z,981.42
2018-09-05T14:12:33.734Z,981.42
2018-09-05T14:13:33.728Z,981.41
2018-09-05T14:14:33.712Z,981.38
2018-09-05T14:15:33.720Z,981.35
2018-09-05T14:16:33.702Z,981.32
2018-09-05T14:17:33.680Z,981.33
2018-09-05T14:18:33.688Z,981.29
2018-09-05T14:19:33.679Z,981.31
2018-09-05T14:20:33.736Z,981.29
2018-09-05T14:21:33.632Z,981.24
2018-09-05T14:22:33.627Z,981.27
2018-09-05T14:23:33.609Z,981.23
2018-09-05T14:24:33.602Z,981.30
2018-09-05T14:25:33.607Z,981.24
2018-09-05T14:26:33.587Z,981.30
2018-09-05T14:27:33.652Z,981.27
2018-09-05T14:28:33.556Z,981.29
2018-09-05T14:29:33.543Z,981.28
2018-09-05T14:30:33.560Z,981.24
2018-09-05T14:31:33.521Z,981.23
2018-09-05T14:32:33.517Z,981.24
2018-09-05T14:33:33.498Z,981.19
2018-09-05T14:34:33.497Z,981.20
2018-09-05T14:35:33.488Z,981.21
2018-09-05T14:36:33.466Z,981.19
2018-09-05T14:37:33.451Z,981.22
2018-09-05T14:38:33.444Z,981.20
2018-09-05T14:39:33.430Z,981.20
2018-09-05T14:40:33.461Z,981.23
2018-09-05T14:41:33.408Z,981.18
2018-09-05T14:42:33.397Z,981.20
2018-09-05T14:43:33.386Z,981.17
2018-09-05T14:44:33.421Z,981.17
2018-09-05T14:45:33.375Z,981.14
2018-09-05T14:46:33.352Z,981.15
2018-09-05T14:47:33.342Z,981.10
2018-09-05T14:48:33.387Z,981.15
2018-09-05T14:49:33.323Z,981.16
2018-09-05T14:50:33.541Z,981.14
2018-09-05T14:51:33.297Z,981.11
2018-09-05T14:52:36.557Z,981.11
2018-09-05T14:53:33.281Z,981.11
2018-09-05T14:54:33.273Z,981.10
2018-09-05T14:55:33.269Z,981.08
2018-09-05T14:56:33.379Z,981.06
2018-09-05T14:57:33.231Z,981.04
2018-09-05T14:58:33.221Z,981.05
2018-09-05T14:59:33.212Z,981.04
2018-09-05T15:00:33.212Z,981.03
2018-09-05T15:01:33.187Z,981.05
2018-09-05T15:02:33.175Z,981.04
2018-09-05T15:03:33.168Z,981.07
2018-09-05T15:04:33.153Z,981.02
2018-09-05T15:05:33.160Z,981.02
2018-09-05T15:06:33.216Z,981.00
2018-09-05T15:07:33.120Z,981.00
2018-09-05T15:08:33.108Z,981.00
2018-09-05T15:09:33.101Z,980.96
2018-09-05T15:10:33.099Z,980.98
2018-09-05T15:11:33.202Z,980.96
2018-09-05T15:12:33.064Z,981.00
2018-09-05T15:13:33.052Z,980.97
2018-09-05T15:14:33.041Z,980.95
2018-09-05T15:15:33.056Z,980.96
2018-09-05T15:16:33.018Z,980.95
2018-09-05T15:17:33.032Z,980.95
2018-09-05T15:18:32.998Z,980.95
2018-09-05T15:19:32.998Z,980.98
2018-09-05T15:20:32.976Z,980.98
2018-09-05T15:21:32.980Z,980.98
2018-09-05T15:22:32.957Z,980.96
2018-09-05T15:23:32.951Z,980.97
2018-09-05T15:24:32.932Z,981.02
2018-09-05T15:25:32.921Z,980.97
2018-09-05T15:26:32.923Z,980.96
2018-09-05T15:27:32.900Z,981.00
2018-09-05T15:28:32.887Z,981.00
2018-09-05T15:29:32.878Z,980.98
2018-09-05T15:30:32.868Z,980.96
2018-09-05T15:31:32.870Z,980.92
2018-09-05T15:32:32.844Z,980.92
2018-09-05T15:33:32.831Z,980.91
2018-09-05T15:34:32.820Z,980.93
2018-09-05T15:35:32.821Z,980.91
2018-09-05T15:36:32.811Z,980.93
2018-09-05T15:37:32.789Z,980.91
2018-09-05T15:38:32.775Z,980.90
2018-09-05T15:39:32.855Z,980.91
2018-09-05T15:40:32.802Z,980.91
2018-09-05T15:41:32.757Z,980.96
2018-09-05T15:42:32.731Z,980.91
2018-09-05T15:43:32.723Z,980.88
2018-09-05T15:44:32.708Z,980.91
2018-09-05T15:45:32.698Z,980.89
2018-09-05T15:46:32.696Z,980.87
2018-09-05T15:47:32.681Z,980.89
2018-09-05T15:48:32.779Z,980.96
2018-09-05T15:49:32.653Z,980.92
2018-09-05T15:50:32.642Z,980.91
2018-09-05T15:51:32.643Z,980.90
2018-09-05T15:52:32.627Z,980.88
2018-09-05T15:53:32.608Z,980.89
2018-09-05T15:54:32.601Z,980.87
2018-09-05T15:55:32.587Z,980.89
2018-09-05T15:56:32.586Z,980.90
2018-09-05T15:57:32.597Z,980.88
2018-09-05T15:58:32.554Z,980.85
2018-09-05T15:59:32.545Z,980.85
2018-09-05T16:00:32.533Z,980.85
2018-09-05T16:01:32.530Z,980.84
2018-09-05T16:02:32.567Z,980.82
2018-09-05T16:03:32.590Z,980.85
2018-09-05T16:04:32.488Z,980.84
2018-09-05T16:05:32.486Z,980.86
2018-09-05T16:06:32.478Z,980.81
2018-09-05T16:07:32.452Z,980.83
2018-09-05T16:08:32.443Z,980.84
2018-09-05T16:09:32.437Z,980.85
2018-09-05T16:10:32.422Z,980.82
2018-09-05T16:11:32.465Z,980.83
2018-09-05T16:12:32.398Z,980.83
2018-09-05T16:13:32.387Z,980.82
2018-09-05T16:14:32.424Z,980.85
2018-09-05T16:15:32.534Z,980.87
2018-09-05T16:16:32.370Z,980.85
2018-09-05T16:17:32.343Z,980.83
2018-09-05T16:18:32.332Z,980.87
2018-09-05T16:19:32.319Z,980.87
2018-09-05T16:20:32.308Z,980.88
2018-09-05T16:21:32.318Z,980.88
2018-09-05T16:22:32.288Z,980.83
2018-09-05T16:23:32.277Z,980.85
2018-09-05T16:24:32.267Z,980.89
2018-09-05T16:25:32.253Z,980.87
2018-09-05T16:26:32.251Z,980.87
2018-09-05T16:27:32.230Z,980.92
2018-09-05T16:28:32.230Z,980.90